createdAt,value
2018-08-16T00:02:09.885Z,16.80
2018-08-16T00:04:38.274Z,16.80
2018-08-16T00:07:07.036Z,16.80
2018-08-16T00:09:35.423Z,16.80
2018-08-16T00:12:03.815Z,16.80
2018-08-16T00:14:32.205Z,16.70
2018-08-16T00:17:00.593Z,16.80
2018-08-16T00:19:29.808Z,16.70
2018-08-16T00:21:58.433Z,16.70
2018-08-16T00:24:26.825Z,16.70
2018-08-16T00:26:55.215Z,16.70
2018-08-16T00:29:23.613Z,16.80
2018-08-16T00:31:52.059Z,16.80
2018-08-16T00:34:20.449Z,16.80
2018-08-16T00:36:48.855Z,16.80
2018-08-16T00:39:17.261Z,16.80
2018-08-16T00:41:45.665Z,16.80
2018-08-16T00:44:14.067Z,16.80
2018-08-16T00:46:42.465Z,16.80
2018-08-16T00:49:10.859Z,16.80
2018-08-16T00:51:39.267Z,16.80
2018-08-16T00:54:07.664Z,16.80
2018-08-16T00:56:36.671Z,16.80
2018-08-16T00:59:05.075Z,16.90
2018-08-16T01:01:33.628Z,16.90
2018-08-16T01:04:02.026Z,16.80
2018-08-16T01:06:30.423Z,16.80
2018-08-16T01:08:58.831Z,16.80
2018-08-16T01:11:27.428Z,16.80
2018-08-16T01:13:55.902Z,16.80
2018-08-16T01:16:24.301Z,16.70
2018-08-16T01:18:53.488Z,16.70
2018-08-16T01:21:21.862Z,16.70
2018-08-16T01:23:50.242Z,16.60
2018-08-16T01:26:18.640Z,16.60
2018-08-16T01:28:47.040Z,16.50
2018-08-16T01:31:15.470Z,16.40
2018-08-16T01:33:43.846Z,16.40
2018-08-16T01:36:12.239Z,16.40
2018-08-16T01:38:40.657Z,16.40
2018-08-16T01:41:09.061Z,16.50
2018-08-16T01:43:37.458Z,16.50
2018-08-16T01:46:05.873Z,16.50
2018-08-16T01:48:34.266Z,16.50
2018-08-16T01:51:02.668Z,16.50
2018-08-16T01:53:31.062Z,16.40
2018-08-16T01:55:59.458Z,16.30
2018-08-16T01:58:27.841Z,16.40
2018-08-16T02:00:56.259Z,16.30
2018-08-16T02:03:24.642Z,16.30
2018-08-16T02:05:53.044Z,16.30
2018-08-16T02:08:21.421Z,16.30
2018-08-16T02:10:49.810Z,16.30
2018-08-16T02:13:18.215Z,16.30
2018-08-16T02:15:46.621Z,16.30
2018-08-16T02:18:15.021Z,16.30
2018-08-16T02:20:43.412Z,16.30
2018-08-16T02:23:11.809Z,16.30
2018-08-16T02:25:40.206Z,16.30
2018-08-16T02:28:08.585Z,16.30
2018-08-16T02:30:36.977Z,16.30
2018-08-16T02:33:05.375Z,16.30
2018-08-16T02:35:33.770Z,16.20
2018-08-16T02:38:02.165Z,16.20
2018-08-16T02:40:30.567Z,16.20
2018-08-16T02:42:58.965Z,16.20
2018-08-16T02:45:27.788Z,16.10
2018-08-16T02:47:56.217Z,16.10
2018-08-16T02:50:24.612Z,16.10
2018-08-16T02:52:53.002Z,16.20
2018-08-16T02:55:21.397Z,16.10
2018-08-16T02:57:49.787Z,16.10
2018-08-16T03:00:18.198Z,16.10
2018-08-16T03:02:46.584Z,16.10
2018-08-16T03:05:14.968Z,16.10
2018-08-16T03:07:43.378Z,16.10
2018-08-16T03:10:11.770Z,16.10
2018-08-16T03:12:40.148Z,16.10
2018-08-16T03:15:09.732Z,16.10
2018-08-16T03:17:39.029Z,16.10
2018-08-16T03:20:07.481Z,16.00
2018-08-16T03:22:35.877Z,16.10
2018-08-16T03:25:04.313Z,16.10
2018-08-16T03:27:32.706Z,16.10
2018-08-16T03:30:01.106Z,16.10
2018-08-16T03:32:29.520Z,16.10
2018-08-16T03:34:57.925Z,16.10
2018-08-16T03:37:26.316Z,16.20
2018-08-16T03:39:54.736Z,16.20
2018-08-16T03:42:23.140Z,16.20
2018-08-16T03:44:51.558Z,16.20
2018-08-16T03:47:19.950Z,16.20
2018-08-16T03:49:48.343Z,16.20
2018-08-16T03:52:16.743Z,16.20
2018-08-16T03:54:45.145Z,16.20
2018-08-16T03:57:13.559Z,16.20
2018-08-16T03:59:41.960Z,16.20
2018-08-16T04:02:10.373Z,16.20
2018-08-16T04:04:38.779Z,16.20
2018-08-16T04:07:07.205Z,16.20
2018-08-16T04:09:35.595Z,16.20
2018-08-16T04:12:04.289Z,16.20
2018-08-16T04:14:32.680Z,16.20
2018-08-16T04:17:01.117Z,16.20
2018-08-16T04:19:29.556Z,16.20
2018-08-16T04:21:58.405Z,16.20
2018-08-16T04:24:27.351Z,16.20
2018-08-16T04:26:55.753Z,16.20
2018-08-16T04:29:24.883Z,16.30
2018-08-16T04:31:53.890Z,16.30
2018-08-16T04:34:22.321Z,16.30
2018-08-16T04:36:50.742Z,16.30
2018-08-16T04:39:19.139Z,16.30
2018-08-16T04:41:47.620Z,16.30
2018-08-16T04:44:16.257Z,16.30
2018-08-16T04:46:45.278Z,16.40
2018-08-16T04:49:13.673Z,16.30
2018-08-16T04:51:42.059Z,16.30
2018-08-16T04:54:10.457Z,16.30
2018-08-16T04:56:38.848Z,16.40
2018-08-16T04:59:07.262Z,16.40
2018-08-16T05:01:36.129Z,16.30
2018-08-16T05:04:04.618Z,16.30
2018-08-16T05:06:40.589Z,16.30
2018-08-16T05:09:09.671Z,16.40
2018-08-16T05:11:39.370Z,16.40
2018-08-16T05:14:08.347Z,16.50
2018-08-16T05:16:36.780Z,16.50
2018-08-16T05:19:05.714Z,16.50
2018-08-16T05:21:34.122Z,16.50
2018-08-16T05:24:02.884Z,16.50
2018-08-16T05:26:31.286Z,16.50
2018-08-16T05:28:59.678Z,16.60
2018-08-16T05:31:28.317Z,16.70
2018-08-16T05:33:56.706Z,16.80
2018-08-16T05:36:25.094Z,16.90
2018-08-16T05:38:53.507Z,17.00
2018-08-16T05:41:21.909Z,17.10
2018-08-16T05:43:50.309Z,17.20
2018-08-16T05:46:18.842Z,17.30
2018-08-16T05:48:48.183Z,17.30
2018-08-16T05:51:16.594Z,17.30
2018-08-16T05:53:45.259Z,17.40
2018-08-16T05:56:13.691Z,17.50
2018-08-16T05:58:42.094Z,17.60
2018-08-16T06:01:10.735Z,17.60
2018-08-16T06:03:39.184Z,17.70
2018-08-16T06:06:08.209Z,17.70
2018-08-16T06:08:36.615Z,17.80
2018-08-16T06:11:05.017Z,17.90
2018-08-16T06:13:33.411Z,17.90
2018-08-16T06:16:02.375Z,17.90
2018-08-16T06:18:30.806Z,18.00
2018-08-16T06:20:59.218Z,18.00
2018-08-16T06:23:27.640Z,18.10
2018-08-16T06:25:56.294Z,18.10
2018-08-16T06:28:24.691Z,18.20
2018-08-16T06:30:53.071Z,18.10
2018-08-16T06:33:21.489Z,18.20
2018-08-16T06:35:49.885Z,18.20
2018-08-16T06:38:18.299Z,18.20
2018-08-16T06:40:47.108Z,18.30
2018-08-16T06:43:15.500Z,18.30
2018-08-16T06:45:44.059Z,18.30
2018-08-16T06:48:12.487Z,18.40
2018-08-16T06:50:41.330Z,18.40
2018-08-16T06:53:09.740Z,18.50
2018-08-16T06:55:38.360Z,18.50
2018-08-16T06:58:06.763Z,18.60
2018-08-16T07:00:35.174Z,18.70
2018-08-16T07:03:03.946Z,18.70
2018-08-16T07:05:32.370Z,18.80
2018-08-16T07:08:00.774Z,18.80
2018-08-16T07:10:29.180Z,18.80
2018-08-16T07:12:57.570Z,18.90
2018-08-16T07:15:25.984Z,19.00
2018-08-16T07:17:54.378Z,19.00
2018-08-16T07:20:22.779Z,19.20
2018-08-16T07:22:51.183Z,19.20
2018-08-16T07:25:19.581Z,19.30
2018-08-16T07:27:48.001Z,19.40
2018-08-16T07:30:16.390Z,19.40
2018-08-16T07:32:44.785Z,19.50
2018-08-16T07:35:13.180Z,19.60
2018-08-16T07:37:41.611Z,19.60
2018-08-16T07:40:09.999Z,19.60
2018-08-16T07:42:38.724Z,19.70
2018-08-16T07:45:09.705Z,19.70
2018-08-16T07:47:38.775Z,19.70
2018-08-16T07:50:09.801Z,19.70
2018-08-16T07:52:39.430Z,19.80
2018-08-16T07:55:08.949Z,19.80
2018-08-16T07:57:37.361Z,19.90
2018-08-16T08:00:09.869Z,19.90
2018-08-16T08:02:38.251Z,19.90
2018-08-16T08:05:06.825Z,20.00
2018-08-16T08:07:35.222Z,19.90
2018-08-16T08:10:03.694Z,19.90
2018-08-16T08:12:32.959Z,20.00
2018-08-16T08:15:01.397Z,20.10
2018-08-16T08:17:29.872Z,20.20
2018-08-16T08:19:58.278Z,20.30
2018-08-16T08:22:26.690Z,20.30
2018-08-16T08:24:55.099Z,20.30
2018-08-16T08:27:23.477Z,20.30
2018-08-16T08:29:51.897Z,20.40
2018-08-16T08:32:20.296Z,20.40
2018-08-16T08:34:48.701Z,20.40
2018-08-16T08:37:29.096Z,20.50
2018-08-16T08:39:57.495Z,20.50
2018-08-16T08:42:26.330Z,20.50
2018-08-16T08:44:54.955Z,20.50
2018-08-16T08:47:28.048Z,20.50
2018-08-16T08:49:56.446Z,20.60
2018-08-16T08:52:25.376Z,20.60
2018-08-16T08:55:04.885Z,20.70
2018-08-16T08:57:44.548Z,20.70
2018-08-16T09:00:13.343Z,20.70
2018-08-16T09:02:41.749Z,20.70
2018-08-16T09:05:10.175Z,20.80
2018-08-16T09:07:38.599Z,20.90
2018-08-16T09:11:17.545Z,21.00
2018-08-16T09:13:58.709Z,21.00
2018-08-16T09:16:32.210Z,21.20
2018-08-16T09:19:01.445Z,21.30
2018-08-16T09:21:30.958Z,21.40
2018-08-16T09:23:59.462Z,21.40
2018-08-16T09:26:33.019Z,21.40
2018-08-16T09:29:01.436Z,21.40
2018-08-16T09:31:41.197Z,21.50
2018-08-16T09:34:21.109Z,21.60
2018-08-16T09:36:50.229Z,21.90
2018-08-16T09:39:18.698Z,22.00
2018-08-16T09:41:47.103Z,22.10
2018-08-16T09:44:15.524Z,22.20
2018-08-16T09:47:00.668Z,22.10
2018-08-16T09:49:30.732Z,22.10
2018-08-16T09:51:59.708Z,22.10
2018-08-16T09:54:28.571Z,22.10
2018-08-16T09:56:58.718Z,22.00
2018-08-16T09:59:27.164Z,22.00
2018-08-16T10:01:55.560Z,22.10
2018-08-16T10:04:23.964Z,22.20
2018-08-16T10:06:52.381Z,22.30
2018-08-16T10:09:24.582Z,22.50
2018-08-16T10:11:54.750Z,22.70
2018-08-16T10:14:23.234Z,22.90
2018-08-16T10:16:51.970Z,23.10
2018-08-16T10:19:21.144Z,23.40
2018-08-16T10:21:49.542Z,23.50
2018-08-16T10:24:17.926Z,23.50
2018-08-16T10:26:46.354Z,23.70
2018-08-16T10:29:14.844Z,23.80
2018-08-16T10:31:43.500Z,23.90
2018-08-16T10:34:12.583Z,24.00
2018-08-16T10:36:41.019Z,24.00
2018-08-16T10:39:13.188Z,24.00
2018-08-16T10:41:41.672Z,24.00
2018-08-16T10:44:11.616Z,23.90
2018-08-16T10:46:40.477Z,23.80
2018-08-16T10:49:11.291Z,23.90
2018-08-16T10:51:41.629Z,24.00
2018-08-16T10:54:10.245Z,24.20
2018-08-16T10:56:38.647Z,24.30
2018-08-16T10:59:07.155Z,24.20
2018-08-16T11:01:36.278Z,24.10
2018-08-16T11:04:04.740Z,24.00
2018-08-16T11:06:33.229Z,24.00
2018-08-16T11:09:01.625Z,24.20
2018-08-16T11:11:30.441Z,24.50
2018-08-16T11:13:58.863Z,24.60
2018-08-16T11:16:27.291Z,24.60
2018-08-16T11:18:56.469Z,24.50
2018-08-16T11:21:24.780Z,24.60
2018-08-16T11:23:53.201Z,24.60
2018-08-16T11:26:21.601Z,24.60
2018-08-16T11:28:50.017Z,24.60
2018-08-16T11:31:18.410Z,24.50
2018-08-16T11:33:46.809Z,24.60
2018-08-16T11:36:15.739Z,24.70
2018-08-16T11:38:44.125Z,24.90
2018-08-16T11:41:12.589Z,25.10
2018-08-16T11:43:41.369Z,25.30
2018-08-16T11:46:16.578Z,25.60
2018-08-16T11:48:46.970Z,25.60
2018-08-16T11:51:15.390Z,25.70
2018-08-16T11:53:43.794Z,25.60
2018-08-16T11:56:12.206Z,25.50
2018-08-16T11:58:40.628Z,25.50
2018-08-16T12:01:09.033Z,25.50
2018-08-16T12:03:40.332Z,25.60
2018-08-16T12:06:08.753Z,25.60
2018-08-16T12:08:37.148Z,25.50
2018-08-16T12:11:06.003Z,25.50
2018-08-16T12:13:34.392Z,25.60
2018-08-16T12:16:02.832Z,25.60
2018-08-16T12:18:31.760Z,25.70
2018-08-16T12:21:00.153Z,25.80
2018-08-16T12:23:28.563Z,25.90
2018-08-16T12:25:56.951Z,26.00
2018-08-16T12:28:25.336Z,26.10
2018-08-16T12:30:53.725Z,26.10
2018-08-16T12:33:22.097Z,26.30
2018-08-16T12:35:50.484Z,26.40
2018-08-16T12:38:18.901Z,26.80
2018-08-16T12:40:50.107Z,27.00
2018-08-16T12:43:15.725Z,27.10
2018-08-16T12:45:44.475Z,27.00
2018-08-16T12:48:12.865Z,26.90
2018-08-16T12:50:41.291Z,26.70
2018-08-16T12:53:09.681Z,26.60
2018-08-16T12:55:38.059Z,26.60
2018-08-16T12:58:06.471Z,26.80
2018-08-16T13:00:35.498Z,27.20
2018-08-16T13:03:03.899Z,27.40
2018-08-16T13:05:32.850Z,27.30
2018-08-16T13:08:01.244Z,27.20
2018-08-16T13:10:29.635Z,26.90
2018-08-16T13:12:58.020Z,26.70
2018-08-16T13:15:26.555Z,26.70
2018-08-16T13:17:54.985Z,26.80
2018-08-16T13:20:23.383Z,27.10
2018-08-16T13:22:51.764Z,27.30
2018-08-16T13:25:20.245Z,27.50
2018-08-16T13:27:48.645Z,27.60
2018-08-16T13:30:17.030Z,27.50
2018-08-16T13:32:45.408Z,27.40
2018-08-16T13:35:13.809Z,27.40
2018-08-16T13:37:42.192Z,27.50
2018-08-16T13:40:10.608Z,27.60
2018-08-16T13:42:39.014Z,27.60
2018-08-16T13:45:07.410Z,27.50
2018-08-16T13:47:35.846Z,27.50
2018-08-16T13:50:04.259Z,27.30
2018-08-16T13:52:32.664Z,27.10
2018-08-16T13:55:01.136Z,26.90
2018-08-16T13:57:29.506Z,26.80
2018-08-16T13:59:57.938Z,26.80
2018-08-16T14:02:26.331Z,26.70
2018-08-16T14:04:55.092Z,26.60
2018-08-16T14:07:23.514Z,26.50
2018-08-16T14:09:51.932Z,26.50
2018-08-16T14:12:20.328Z,26.80
2018-08-16T14:14:48.928Z,27.00
2018-08-16T14:17:17.357Z,27.00
2018-08-16T14:19:45.754Z,26.90
2018-08-16T14:22:14.171Z,26.90
2018-08-16T14:24:42.786Z,26.80
2018-08-16T14:27:11.210Z,26.80
2018-08-16T14:29:39.643Z,26.70
2018-08-16T14:32:08.133Z,26.50
2018-08-16T14:34:36.455Z,26.50
2018-08-16T14:37:05.543Z,26.50
2018-08-16T14:39:33.922Z,26.40
2018-08-16T14:42:02.841Z,26.40
2018-08-16T14:44:31.289Z,26.60
2018-08-16T14:46:59.709Z,27.00
2018-08-16T14:49:28.276Z,27.30
2018-08-16T14:51:56.675Z,27.40
2018-08-16T14:54:25.111Z,27.20
2018-08-16T14:56:53.489Z,27.00
2018-08-16T14:59:22.345Z,26.70
2018-08-16T15:01:51.197Z,26.40
2018-08-16T15:04:19.614Z,26.30
2018-08-16T15:06:47.996Z,26.20
2018-08-16T15:09:16.795Z,26.10
2018-08-16T15:11:45.227Z,26.10
2018-08-16T15:14:13.632Z,26.10
2018-08-16T15:16:42.059Z,26.00
2018-08-16T15:19:10.499Z,26.10
2018-08-16T15:21:38.900Z,26.40
2018-08-16T15:24:07.285Z,26.40
2018-08-16T15:26:35.686Z,26.30
2018-08-16T15:29:04.088Z,26.20
2018-08-16T15:31:32.476Z,26.10
2018-08-16T15:34:00.883Z,26.00
2018-08-16T15:36:29.269Z,25.80
2018-08-16T15:38:57.680Z,25.70
2018-08-16T15:41:26.065Z,25.50
2018-08-16T15:43:54.480Z,25.40
2018-08-16T15:46:22.939Z,25.30
2018-08-16T15:48:51.334Z,25.40
2018-08-16T15:51:19.767Z,25.40
2018-08-16T15:53:48.762Z,25.30
2018-08-16T15:56:17.191Z,25.40
2018-08-16T15:58:45.598Z,25.50
2018-08-16T16:01:14.206Z,25.40
2018-08-16T16:03:42.956Z,25.30
2018-08-16T16:06:11.542Z,25.30
2018-08-16T16:08:39.828Z,25.30
2018-08-16T16:11:08.226Z,25.30
2018-08-16T16:13:37.084Z,25.40
2018-08-16T16:16:05.859Z,25.40
2018-08-16T16:18:34.345Z,25.50
2018-08-16T16:21:02.745Z,25.50
2018-08-16T16:23:31.488Z,25.70
2018-08-16T16:26:00.509Z,25.90
2018-08-16T16:28:28.925Z,26.00
2018-08-16T16:30:57.351Z,26.10
2018-08-16T16:33:25.807Z,26.20
2018-08-16T16:35:54.582Z,26.40
2018-08-16T16:38:22.984Z,26.30
2018-08-16T16:40:51.377Z,26.00
2018-08-16T16:43:19.792Z,25.90
2018-08-16T16:45:49.493Z,25.70
2018-08-16T16:48:17.904Z,25.60
2018-08-16T16:50:46.336Z,25.60
2018-08-16T16:53:14.777Z,25.60
2018-08-16T16:55:43.159Z,25.70
2018-08-16T16:58:12.432Z,25.90
2018-08-16T17:00:41.297Z,26.10
2018-08-16T17:03:15.121Z,26.20
2018-08-16T17:05:43.575Z,26.20
2018-08-16T17:08:11.995Z,26.00
2018-08-16T17:10:40.582Z,25.80
2018-08-16T17:13:09.021Z,25.60
2018-08-16T17:15:37.407Z,25.30
2018-08-16T17:18:06.137Z,25.10
2018-08-16T17:20:34.580Z,24.90
2018-08-16T17:23:03.188Z,24.80
2018-08-16T17:25:31.581Z,24.80
2018-08-16T17:28:00.201Z,24.80
2018-08-16T17:30:28.890Z,24.60
2018-08-16T17:32:57.314Z,24.40
2018-08-16T17:35:25.966Z,24.30
2018-08-16T17:37:54.476Z,24.10
2018-08-16T17:40:23.008Z,24.00
2018-08-16T17:42:51.426Z,23.90
2018-08-16T17:45:19.805Z,23.70
2018-08-16T17:47:48.215Z,23.60
2018-08-16T17:50:16.594Z,23.50
2018-08-16T17:52:44.971Z,23.50
2018-08-16T17:55:13.354Z,23.60
2018-08-16T17:57:41.747Z,23.70
2018-08-16T18:00:11.030Z,23.80
2018-08-16T18:02:39.459Z,23.80
2018-08-16T18:05:07.888Z,23.80
2018-08-16T18:07:36.354Z,23.70
2018-08-16T18:10:06.023Z,23.60
2018-08-16T18:12:34.409Z,23.50
2018-08-16T18:15:02.788Z,23.50
2018-08-16T18:17:31.189Z,23.40
2018-08-16T18:19:59.593Z,23.30
2018-08-16T18:22:28.004Z,23.30
2018-08-16T18:24:57.365Z,23.20
2018-08-16T18:27:25.812Z,23.20
2018-08-16T18:29:54.239Z,23.20
2018-08-16T18:32:22.635Z,23.30
2018-08-16T18:34:51.057Z,23.30
2018-08-16T18:37:19.461Z,23.30
2018-08-16T18:39:47.877Z,23.30
2018-08-16T18:42:16.299Z,23.20
2018-08-16T18:44:44.785Z,23.10
2018-08-16T18:47:13.159Z,23.10
2018-08-16T18:49:41.544Z,23.00
2018-08-16T18:52:09.977Z,22.90
2018-08-16T18:54:38.381Z,23.00
2018-08-16T18:57:06.797Z,23.00
2018-08-16T18:59:35.277Z,23.10
2018-08-16T19:02:03.636Z,23.10
2018-08-16T19:04:32.036Z,23.10
2018-08-16T19:07:00.455Z,23.00
2018-08-16T19:09:28.924Z,22.90
2018-08-16T19:11:57.308Z,22.90
2018-08-16T19:14:25.718Z,22.80
2018-08-16T19:16:54.128Z,22.70
2018-08-16T19:19:22.536Z,22.60
2018-08-16T19:21:50.926Z,22.50
2018-08-16T19:24:20.199Z,22.40
2018-08-16T19:26:48.569Z,22.30
2018-08-16T19:29:17.012Z,22.20
2018-08-16T19:31:45.422Z,22.10
2018-08-16T19:34:13.836Z,22.00
2018-08-16T19:36:42.272Z,21.80
2018-08-16T19:39:12.326Z,21.50
2018-08-16T19:41:40.871Z,21.20
2018-08-16T19:44:09.316Z,20.90
2018-08-16T19:46:37.812Z,20.60
2018-08-16T19:49:06.379Z,20.50
2018-08-16T19:51:34.882Z,20.40
2018-08-16T19:54:03.286Z,20.30
2018-08-16T19:56:31.692Z,20.20
2018-08-16T19:59:00.079Z,20.20
2018-08-16T20:01:28.704Z,20.10
2018-08-16T20:03:56.944Z,20.10
2018-08-16T20:06:25.385Z,20.00
2018-08-16T20:08:53.804Z,19.90
2018-08-16T20:11:22.211Z,19.70
2018-08-16T20:13:50.613Z,19.60
2018-08-16T20:16:19.056Z,19.60
2018-08-16T20:18:47.463Z,19.50
2018-08-16T20:21:15.858Z,19.30
2018-08-16T20:23:44.267Z,19.30
2018-08-16T20:26:12.688Z,19.20
2018-08-16T20:28:41.143Z,19.20
2018-08-16T20:31:09.580Z,19.10
2018-08-16T20:33:38.025Z,19.00
2018-08-16T20:36:06.520Z,18.90
2018-08-16T20:38:34.926Z,18.90
2018-08-16T20:41:03.343Z,18.80
2018-08-16T20:43:31.753Z,18.70
2018-08-16T20:46:00.518Z,18.60
2018-08-16T20:48:28.923Z,18.50
2018-08-16T20:50:57.335Z,18.30
2018-08-16T20:53:25.819Z,18.20
2018-08-16T20:55:54.217Z,18.10
2018-08-16T20:58:22.651Z,18.00
2018-08-16T21:00:51.072Z,17.90
2018-08-16T21:04:48.682Z,17.90
2018-08-16T21:07:17.077Z,17.80
2018-08-16T21:09:45.485Z,17.80
2018-08-16T21:12:13.891Z,17.70
2018-08-16T21:14:42.343Z,17.70
2018-08-16T21:17:10.776Z,17.70
2018-08-16T21:19:39.171Z,17.60
2018-08-16T21:22:07.640Z,17.60
2018-08-16T21:24:36.058Z,17.60
2018-08-16T21:27:04.464Z,17.60
2018-08-16T21:29:32.875Z,17.60
2018-08-16T21:32:01.270Z,17.60
2018-08-16T21:34:29.673Z,17.70
2018-08-16T21:36:58.077Z,17.70
2018-08-16T21:39:26.478Z,17.70
2018-08-16T21:41:54.878Z,17.70
2018-08-16T21:44:23.270Z,17.60
2018-08-16T21:46:51.678Z,17.60
2018-08-16T21:49:20.090Z,17.60
2018-08-16T21:51:48.488Z,17.60
2018-08-16T21:54:16.878Z,17.50
2018-08-16T21:56:45.266Z,17.50
2018-08-16T21:59:13.662Z,17.50
2018-08-16T22:01:42.063Z,17.50
2018-08-16T22:04:10.466Z,17.50
2018-08-16T22:06:49.982Z,17.40
2018-08-16T22:09:18.386Z,17.40
2018-08-16T22:11:46.796Z,17.40
2018-08-16T22:14:15.175Z,17.40
2018-08-16T22:16:43.570Z,17.40
2018-08-16T22:19:11.954Z,17.40
2018-08-16T22:21:40.342Z,17.40
2018-08-16T22:24:08.749Z,17.30
2018-08-16T22:26:37.149Z,17.40
2018-08-16T22:29:05.565Z,17.40
2018-08-16T22:31:33.968Z,17.30
2018-08-16T22:34:02.443Z,17.30
2018-08-16T22:36:30.797Z,17.30
2018-08-16T22:38:59.203Z,17.20
2018-08-16T22:41:27.599Z,17.20
2018-08-16T22:43:55.985Z,17.20
2018-08-16T22:46:24.389Z,17.20
2018-08-16T22:48:52.786Z,17.20
2018-08-16T22:51:21.177Z,17.20
2018-08-16T22:53:49.573Z,17.20
2018-08-16T22:56:17.967Z,17.20
2018-08-16T22:58:46.374Z,17.20
2018-08-16T23:01:14.788Z,17.20
2018-08-16T23:03:43.189Z,17.30
2018-08-16T23:06:11.589Z,17.30
2018-08-16T23:08:39.983Z,17.30
2018-08-16T23:11:08.379Z,17.40
2018-08-16T23:13:36.761Z,17.40
2018-08-16T23:16:05.206Z,17.50
2018-08-16T23:18:33.570Z,17.50
2018-08-16T23:21:01.979Z,17.50
2018-08-16T23:23:30.370Z,17.50
2018-08-16T23:25:58.764Z,17.40
2018-08-16T23:28:27.142Z,17.40
2018-08-16T23:30:55.658Z,17.40
2018-08-16T23:33:24.056Z,17.30
2018-08-16T23:35:52.462Z,17.30
2018-08-16T23:38:20.844Z,17.30
2018-08-16T23:40:49.238Z,17.20
2018-08-16T23:43:17.750Z,17.10
2018-08-16T23:45:46.210Z,17.00
2018-08-16T23:48:29.191Z,17.00
2018-08-16T23:50:58.186Z,17.00
2018-08-16T23:53:27.480Z,17.00
2018-08-16T23:55:56.975Z,17.00
2018-08-16T23:58:25.371Z,17.00
